Wings Field

Airport
ICAO code: 
KLOM
Summary
ICAO Region: 
NAM
Territory: 
Location: 
Blue Bell, Pennsylvania,
Coordinates: 
Aerial View: 
40° 8' 15.003" N, 75° 15' 54.355" W
Airport BS: 
Bird Strike
Airport WX: 
Tropical Revolving Storm
Metar
Observation
KLOM 071055Z AUTO 26003KT 10SM CLR 00/M07 A3014 RMK AO2 T10001069
Station
Philadelphia, Wings Field Airport
Date/Time
2021-12-07 10:55:00
Wind direction
260°
Wind speed
03 kts
Lowest cloud amount
n/a
Temperature
-0°C
Dew point
-6.9°C
Humidity
59%
Weather condition
n/a

Description

General Aviation airport 5 km northwest of Philadelphia.

Climatology

Humid “subtropical” climate (Köppen climate classification Cfa) - characterized by hot, humid summers and cool winters. Significant amounts of precipitation occur in all seasons in most areas. Winter rainfall (and sometimes snowfall) is associated with large storms that the westerlies steer from west to east. Most summer rainfall occurs during thunderstorms and occasional tropical storms (hurricanes).

Runways

Designator Length Width Surface Rops
6/24 1128 23 ASP Yes/Yes
Airport map: 
Aerial View: 

SKYbrary Partners:

Safety knowledge contributed by: